Date,TemperatureHighF,TemperatureAvgF,TemperatureLowF,DewpointHighF,DewpointAvgF,DewpointLowF,HumidityHigh,HumidityAvg,HumidityLow,PressureMaxIn,PressureMinIn,WindSpeedMaxMPH,WindSpeedAvgMPH,GustSpeedMaxMPH,PrecipitationSumIn
2013-8-1,87,74,62,72,66,62,99,80,46,30.06,29.95,3,0,6,0.00
2013-8-2,82,74,68,73,69,64,99,87,69,29.95,29.86,6,1,8,0.71
2013-8-3,84,74,66,75,70,64,100,87,64,30.09,29.90,3,0,8,0.01
2013-8-4,79,71,60,67,64,59,99,79,56,30.15,30.04,3,0,6,0.00
2013-8-5,77,71,65,71,67,63,94,87,80,30.07,29.83,6,1,10,0.00
2013-8-6,87,78,71,75,72,70,100,84,64,29.89,29.79,5,1,9,0.00
2013-8-7,87,79,73,77,73,70,97,85,65,29.89,29.76,4,1,9,0.00
2013-8-8,79,74,70,76,72,69,99,94,87,29.94,29.86,2,0,5,0.08
2013-8-9,80,73,66,73,70,65,100,91,75,30.05,29.92,2,0,6,0.00
2013-8-10,84,74,63,69,66,58,99,77,45,30.13,30.04,3,1,6,0.00
2013-8-11,86,72,56,67,62,56,99,75,46,30.12,30.01,5,1,6,0.00
2013-8-12,82,74,68,75,70,65,98,89,75,30.04,29.88,2,0,3,0.16
2013-8-13,79,70,63,70,65,57,99,84,63,30.11,29.94,3,0,7,0.01
2013-8-14,75,63,51,59,55,50,98,77,49,30.19,30.10,4,1,7,0.00
2013-8-15,74,64,53,63,56,53,99,76,48,30.16,30.05,4,1,7,0.00
2013-8-16,76,67,59,60,59,57,94,77,56,30.13,30.10,3,0,5,0.00
2013-8-17,80,67,53,65,60,52,100,80,54,30.17,30.08,4,1,7,0.00
2013-8-18,83,71,58,67,63,57,99,79,54,30.16,30.05,3,0,5,0.00
2013-8-19,87,74,60,71,65,59,99,78,51,30.10,29.99,4,1,8,0.00
2013-8-20,89,76,63,72,67,62,98,76,47,30.08,29.98,3,1,5,0.00
2013-8-21,90,78,65,71,68,64,99,73,47,30.08,29.99,5,1,8,0.00
2013-8-22,90,81,73,76,72,68,94,76,58,30.07,29.97,4,1,8,0.00
2013-8-23,90,80,71,76,73,70,98,80,58,30.07,30.00,5,1,7,0.00
2013-8-24,91,75,65,73,69,64,99,83,50,30.17,30.06,4,1,10,0.00